Time;durP1;ratioP1;P1;durP2;ratioP2;P2;SDS_P1;SDS_P2;PMS_P1;PMS_P2;Temp;Humidity;BMP_temperature;BMP_pressure;BME280_temperature;BME280_humidity;BME280_pressure;Samples;Min_cycle;Max_cycle;Signal;HPM_P1;HPM_P2
2022/11/11 00:01:46;;;;;;;4.30;0.60;;;;;;;;;;6265936;22;20015;-41
2022/11/11 00:04:13;;;;;;;2.00;0.60;;;;;;;;;;6279317;22;20488;-41
2022/11/11 00:06:39;;;;;;;1.85;0.50;;;;;;;;;;6266390;22;20022;-40
2022/11/11 00:09:06;;;;;;;1.73;0.40;;;;;;;;;;6278312;22;20076;-41
2022/11/11 00:11:32;;;;;;;2.05;0.65;;;;;;;;;;6261214;22;20214;-42
2022/11/11 00:13:59;;;;;;;1.93;0.57;;;;;;;;;;6280913;22;20038;-44
2022/11/11 00:25:04;;;;;;;2.20;0.63;;;;;;;;;;6272081;22;20439;-43
2022/11/11 00:27:39;;;;;;;1.70;0.40;;;;;;;;;;6149019;23;20021;-43
2022/11/11 00:30:06;;;;;;;1.80;0.50;;;;;;;;;;6229464;22;20462;-41
2022/11/11 00:32:33;;;;;;;1.90;0.43;;;;;;;;;;6275855;22;20450;-41
2022/11/11 00:37:47;;;;;;;1.95;0.52;;;;;;;;;;6263558;22;20453;-43
2022/11/11 00:40:14;;;;;;;2.10;0.60;;;;;;;;;;6276773;22;20462;-41
2022/11/11 00:42:40;;;;;;;1.98;0.50;;;;;;;;;;6266983;22;20687;-41
2022/11/11 00:45:07;;;;;;;3.65;0.70;;;;;;;;;;6278113;22;20015;-42
2022/11/11 00:53:08;;;;;;;2.03;0.50;;;;;;;;;;6258544;22;20037;-42
2022/11/11 00:55:34;;;;;;;2.00;0.47;;;;;;;;;;6272475;22;20077;-43
2022/11/11 00:58:01;;;;;;;1.58;0.38;;;;;;;;;;6263844;22;20015;-42
2022/11/11 01:00:27;;;;;;;2.00;0.50;;;;;;;;;;6276952;22;20064;-42
2022/11/11 01:02:54;;;;;;;1.90;0.43;;;;;;;;;;6261265;22;20035;-44
2022/11/11 01:05:22;;;;;;;1.50;0.40;;;;;;;;;;6277981;22;20038;-42
2022/11/11 01:07:49;;;;;;;2.17;0.55;;;;;;;;;;6272068;22;20046;-42
2022/11/11 01:10:36;;;;;;;4.13;0.57;;;;;;;;;;6270310;22;20081;-43
2022/11/11 01:13:11;;;;;;;2.08;0.60;;;;;;;;;;6266521;22;20030;-42
2022/11/11 01:15:38;;;;;;;2.50;0.90;;;;;;;;;;6266463;22;20397;-41
2022/11/11 01:18:05;;;;;;;1.57;0.40;;;;;;;;;;6262846;22;20015;-41
2022/11/11 01:20:32;;;;;;;2.20;0.70;;;;;;;;;;6277361;22;20016;-41
2022/11/11 01:22:59;;;;;;;1.90;0.50;;;;;;;;;;6271540;22;20165;-41
2022/11/11 01:25:26;;;;;;;1.80;0.50;;;;;;;;;;6274479;22;20050;-41
2022/11/11 01:27:53;;;;;;;1.80;0.50;;;;;;;;;;6267894;22;20015;-40
2022/11/11 01:30:19;;;;;;;2.27;0.70;;;;;;;;;;6282622;22;20449;-42
2022/11/11 01:32:46;;;;;;;1.80;0.50;;;;;;;;;;6264244;22;20016;-40
2022/11/11 01:35:12;;;;;;;1.92;0.57;;;;;;;;;;6271276;22;20015;-45
2022/11/11 01:37:40;;;;;;;2.03;0.60;;;;;;;;;;6239494;22;20335;-43
2022/11/11 01:40:07;;;;;;;2.72;0.82;;;;;;;;;;6274235;22;20019;-41
2022/11/11 01:42:45;;;;;;;3.03;0.70;;;;;;;;;;6261434;22;20064;-41
2022/11/11 01:45:27;;;;;;;2.47;0.80;;;;;;;;;;6266046;22;20019;-42
2022/11/11 01:50:34;;;;;;;2.40;0.60;;;;;;;;;;6213791;22;20354;-40
2022/11/11 01:53:02;;;;;;;1.90;0.50;;;;;;;;;;6262097;22;20591;-44
2022/11/11 01:55:28;;;;;;;1.67;0.40;;;;;;;;;;6281248;22;20030;-41
2022/11/11 01:57:57;;;;;;;2.60;1.05;;;;;;;;;;6262437;22;20011;-40
2022/11/11 02:00:24;;;;;;;2.80;0.90;;;;;;;;;;6277460;22;20026;-41
2022/11/11 02:02:52;;;;;;;2.70;0.80;;;;;;;;;;6259908;22;20015;-40
2022/11/11 02:08:09;;;;;;;1.90;0.57;;;;;;;;;;6274956;22;20012;-43
2022/11/11 02:10:35;;;;;;;2.55;1.00;;;;;;;;;;6275716;22;20060;-42
2022/11/11 02:15:46;;;;;;;1.90;0.50;;;;;;;;;;6277888;22;20023;-42
2022/11/11 02:18:13;;;;;;;1.90;0.47;;;;;;;;;;6271646;22;20358;-42
2022/11/11 02:20:40;;;;;;;2.47;0.97;;;;;;;;;;6237031;22;20019;-41
2022/11/11 02:23:10;;;;;;;5.85;0.60;;;;;;;;;;6274081;22;20449;-42
2022/11/11 02:25:40;;;;;;;2.55;1.05;;;;;;;;;;6249622;22;20020;-40
2022/11/11 02:28:07;;;;;;;3.00;0.63;;;;;;;;;;6267494;22;20015;-41
2022/11/11 02:30:33;;;;;;;1.77;0.50;;;;;;;;;;6275235;22;20019;-40
2022/11/11 02:33:00;;;;;;;2.10;0.60;;;;;;;;;;6271494;22;20023;-43
2022/11/11 02:35:30;;;;;;;2.00;0.55;;;;;;;;;;6264441;22;20022;-41
2022/11/11 02:37:57;;;;;;;2.40;0.63;;;;;;;;;;6272719;22;20023;-41
2022/11/11 02:40:25;;;;;;;2.40;0.80;;;;;;;;;;6270424;22;20034;-44
2022/11/11 02:42:54;;;;;;;2.47;0.68;;;;;;;;;;6266382;22;20018;-41
2022/11/11 02:45:20;;;;;;;2.00;0.60;;;;;;;;;;6274945;22;20606;-42
2022/11/11 02:47:47;;;;;;;3.05;0.90;;;;;;;;;;6265997;22;20755;-41
2022/11/11 02:50:14;;;;;;;2.30;0.68;;;;;;;;;;6280768;22;20015;-42
2022/11/11 02:52:40;;;;;;;3.72;0.50;;;;;;;;;;6261362;22;20019;-42
2022/11/11 02:55:07;;;;;;;1.85;0.52;;;;;;;;;;6274966;22;20015;-40
2022/11/11 02:57:34;;;;;;;2.10;0.63;;;;;;;;;;6268855;22;20454;-40
2022/11/11 03:00:02;;;;;;;1.92;0.63;;;;;;;;;;6278248;22;20019;-40
2022/11/11 03:02:29;;;;;;;2.00;0.50;;;;;;;;;;6266234;22;20019;-41
2022/11/11 03:04:56;;;;;;;1.98;0.50;;;;;;;;;;6264749;22;20015;-40
2022/11/11 03:07:22;;;;;;;4.72;1.00;;;;;;;;;;6267914;22;20061;-41
2022/11/11 03:09:49;;;;;;;1.97;0.60;;;;;;;;;;6276603;22;20015;-42
2022/11/11 03:12:16;;;;;;;1.73;0.40;;;;;;;;;;6268606;22;20015;-42
2022/11/11 03:14:42;;;;;;;1.45;0.30;;;;;;;;;;6274837;22;20041;-40
2022/11/11 03:22:39;;;;;;;2.73;0.77;;;;;;;;;;6259713;22;20394;-41
2022/11/11 03:27:50;;;;;;;2.05;0.70;;;;;;;;;;6272582;22;20066;-40
2022/11/11 03:30:16;;;;;;;2.20;0.60;;;;;;;;;;6273469;22;20011;-45
2022/11/11 03:32:44;;;;;;;3.65;0.73;;;;;;;;;;6273263;22;20015;-42
2022/11/11 03:35:11;;;;;;;2.03;0.63;;;;;;;;;;6279079;22;20121;-41
2022/11/11 03:40:33;;;;;;;3.60;1.45;;;;;;;;;;6145128;23;20032;-41
2022/11/11 03:43:00;;;;;;;2.08;0.60;;;;;;;;;;6243004;22;20462;-43
2022/11/11 03:45:28;;;;;;;2.53;0.93;;;;;;;;;;6265563;22;20327;-41
2022/11/11 03:47:56;;;;;;;2.00;0.60;;;;;;;;;;6272472;22;20491;-42
2022/11/11 03:50:23;;;;;;;1.60;0.32;;;;;;;;;;6264430;22;20041;-40
2022/11/11 03:52:49;;;;;;;2.47;0.60;;;;;;;;;;6282584;22;20015;-41
2022/11/11 03:55:16;;;;;;;1.60;0.40;;;;;;;;;;6280290;22;20011;-40
2022/11/11 03:57:44;;;;;;;2.20;0.55;;;;;;;;;;6260601;22;20015;-40
2022/11/11 04:00:11;;;;;;;1.40;0.30;;;;;;;;;;6272263;22;20015;-41
2022/11/11 04:10:56;;;;;;;2.00;0.57;;;;;;;;;;6245244;22;20540;-41
2022/11/11 04:16:07;;;;;;;2.60;0.68;;;;;;;;;;6271973;22;20022;-43
2022/11/11 04:25:47;;;;;;;2.10;0.60;;;;;;;;;;6244109;22;20504;-42
2022/11/11 04:26:48;;;;;;;2.13;0.60;;;;;;;;;;6229712;22;20095;-42
2022/11/11 04:29:30;;;;;;;5.43;0.93;;;;;;;;;;6245905;22;20094;-44
2022/11/11 04:34:45;;;;;;;1.98;0.52;;;;;;;;;;6243656;22;20019;-42
2022/11/11 04:37:13;;;;;;;2.55;1.05;;;;;;;;;;6237227;22;20517;-42
2022/11/11 04:42:23;;;;;;;4.47;0.50;;;;;;;;;;6211286;22;20492;-41
2022/11/11 04:47:34;;;;;;;2.33;0.70;;;;;;;;;;6232817;22;20019;-42
2022/11/11 04:50:00;;;;;;;4.63;1.23;;;;;;;;;;6246480;22;20093;-41
2022/11/11 04:52:28;;;;;;;2.08;0.57;;;;;;;;;;6236888;22;20026;-41
2022/11/11 04:57:40;;;;;;;1.50;0.30;;;;;;;;;;6238703;22;20012;-40
2022/11/11 05:00:07;;;;;;;1.92;0.50;;;;;;;;;;6245204;22;20066;-40
2022/11/11 05:05:17;;;;;;;2.13;0.90;;;;;;;;;;6239602;22;20521;-40
2022/11/11 05:10:29;;;;;;;1.40;0.30;;;;;;;;;;6230091;22;20325;-40
2022/11/11 05:21:19;;;;;;;1.40;0.30;;;;;;;;;;6241244;22;20285;-40
2022/11/11 05:21:21;;;;;;;1.85;0.50;;;;;;;;;;6245802;22;20020;-41
2022/11/11 05:26:33;;;;;;;2.80;0.75;;;;;;;;;;6238656;22;20022;-40
2022/11/11 05:29:00;;;;;;;2.38;0.77;;;;;;;;;;6246367;22;20019;-40
2022/11/11 05:31:26;;;;;;;2.42;0.80;;;;;;;;;;6239635;22;20031;-41
2022/11/11 05:33:53;;;;;;;1.77;0.50;;;;;;;;;;6234397;22;20015;-41
2022/11/11 05:36:19;;;;;;;2.57;0.97;;;;;;;;;;6241452;22;20016;-41
2022/11/11 05:38:46;;;;;;;3.88;0.98;;;;;;;;;;6238924;22;20077;-41
2022/11/11 05:41:14;;;;;;;1.95;0.50;;;;;;;;;;6243278;22;20335;-42
2022/11/11 05:43:40;;;;;;;2.40;0.70;;;;;;;;;;6234648;22;20015;-40
2022/11/11 05:46:06;;;;;;;2.92;0.88;;;;;;;;;;6249614;22;20008;-42
2022/11/11 05:48:33;;;;;;;1.50;0.40;;;;;;;;;;6224697;22;20012;-41
2022/11/11 05:51:00;;;;;;;2.17;0.63;;;;;;;;;;6248705;22;20020;-41
2022/11/11 05:53:27;;;;;;;2.85;0.88;;;;;;;;;;6230198;22;20311;-40
2022/11/11 05:55:54;;;;;;;1.70;0.50;;;;;;;;;;6249455;22;20320;-42
2022/11/11 05:58:22;;;;;;;2.42;0.70;;;;;;;;;;6232284;22;20020;-40
2022/11/11 06:00:49;;;;;;;2.07;0.60;;;;;;;;;;6246887;22;20027;-40
2022/11/11 06:03:17;;;;;;;4.38;0.80;;;;;;;;;;6237313;22;20546;-41
2022/11/11 06:05:43;;;;;;;2.65;1.02;;;;;;;;;;6235541;22;20039;-40
2022/11/11 06:08:09;;;;;;;1.73;0.50;;;;;;;;;;6240491;22;20065;-41
2022/11/11 06:10:37;;;;;;;2.70;1.13;;;;;;;;;;6242295;22;20016;-41
2022/11/11 06:13:08;;;;;;;3.63;1.57;;;;;;;;;;6246251;22;20020;-41
2022/11/11 06:15:37;;;;;;;1.40;0.30;;;;;;;;;;6246592;22;20015;-40
2022/11/11 06:18:04;;;;;;;2.00;0.40;;;;;;;;;;6254008;22;20016;-41
2022/11/11 06:20:31;;;;;;;1.80;0.40;;;;;;;;;;6243663;22;20031;-41
2022/11/11 06:22:58;;;;;;;1.65;0.43;;;;;;;;;;6277086;22;20025;-45
2022/11/11 06:28:09;;;;;;;2.00;0.60;;;;;;;;;;6263696;22;20022;-41
2022/11/11 06:30:37;;;;;;;1.90;0.50;;;;;;;;;;6270812;22;20015;-42
2022/11/11 06:33:03;;;;;;;2.08;0.57;;;;;;;;;;6265709;22;20098;-42
2022/11/11 06:35:30;;;;;;;1.88;0.50;;;;;;;;;;6245997;22;20449;-42
2022/11/11 06:37:56;;;;;;;2.20;0.70;;;;;;;;;;6248871;22;20480;-40
2022/11/11 06:40:23;;;;;;;1.95;0.57;;;;;;;;;;6267347;22;20019;-41
2022/11/11 06:42:50;;;;;;;3.42;0.70;;;;;;;;;;6267992;22;20011;-41
2022/11/11 06:45:16;;;;;;;2.20;0.70;;;;;;;;;;6267234;22;20019;-40
2022/11/11 06:47:45;;;;;;;1.98;0.55;;;;;;;;;;6271552;22;20381;-44
2022/11/11 06:50:11;;;;;;;2.90;1.03;;;;;;;;;;6267307;22;20950;-41
2022/11/11 06:52:39;;;;;;;2.15;0.55;;;;;;;;;;6271756;22;20442;-41
2022/11/11 06:55:06;;;;;;;2.30;0.70;;;;;;;;;;6268352;22;20253;-41
2022/11/11 06:57:32;;;;;;;2.28;0.77;;;;;;;;;;6267461;22;20033;-40
2022/11/11 06:59:59;;;;;;;2.03;0.55;;;;;;;;;;6265364;22;20015;-40
2022/11/11 07:02:25;;;;;;;2.73;0.70;;;;;;;;;;6268509;22;20022;-41
2022/11/11 07:04:53;;;;;;;2.80;0.88;;;;;;;;;;6262049;22;20031;-40
2022/11/11 07:07:20;;;;;;;1.95;0.60;;;;;;;;;;6267270;22;20011;-40
2022/11/11 07:09:46;;;;;;;1.63;0.40;;;;;;;;;;6265779;22;20049;-41
2022/11/11 07:12:13;;;;;;;2.00;0.60;;;;;;;;;;6261833;22;20076;-41
2022/11/11 07:14:39;;;;;;;2.20;0.60;;;;;;;;;;6257056;22;20019;-41
2022/11/11 07:17:06;;;;;;;1.75;0.40;;;;;;;;;;6268492;22;20436;-41
2022/11/11 07:19:33;;;;;;;2.22;0.70;;;;;;;;;;6235429;22;20576;-42
2022/11/11 07:22:02;;;;;;;2.15;0.65;;;;;;;;;;6250303;22;20022;-41
2022/11/11 07:24:28;;;;;;;6.40;1.02;;;;;;;;;;6252200;22;20633;-41
2022/11/11 07:26:55;;;;;;;1.80;0.43;;;;;;;;;;6257332;22;20235;-42
2022/11/11 07:29:21;;;;;;;1.88;0.50;;;;;;;;;;6259820;22;20415;-40
2022/11/11 07:31:49;;;;;;;2.05;0.50;;;;;;;;;;6228750;22;20350;-40
2022/11/11 07:34:16;;;;;;;2.45;0.70;;;;;;;;;;6268778;22;20011;-42
2022/11/11 07:36:42;;;;;;;1.60;0.35;;;;;;;;;;6268673;22;20065;-40
2022/11/11 07:39:10;;;;;;;2.00;0.60;;;;;;;;;;6275532;22;20023;-41
2022/11/11 07:41:37;;;;;;;2.08;0.60;;;;;;;;;;6238251;22;20434;-41
2022/11/11 07:44:03;;;;;;;2.20;0.63;;;;;;;;;;6264778;22;20073;-40
2022/11/11 07:46:30;;;;;;;7.70;0.77;;;;;;;;;;6265429;22;20340;-42
2022/11/11 07:48:56;;;;;;;4.43;0.80;;;;;;;;;;6273858;22;20015;-41
2022/11/11 07:51:23;;;;;;;2.07;0.70;;;;;;;;;;6272469;22;20015;-41
2022/11/11 07:53:49;;;;;;;3.35;0.50;;;;;;;;;;6272095;22;20012;-40
2022/11/11 07:56:17;;;;;;;1.80;0.43;;;;;;;;;;6267475;22;20111;-40
2022/11/11 07:58:43;;;;;;;1.83;0.50;;;;;;;;;;6273156;22;20512;-40
2022/11/11 08:01:10;;;;;;;1.80;0.40;;;;;;;;;;6262035;22;20023;-40
2022/11/11 08:03:48;;;;;;;1.77;0.50;;;;;;;;;;6275250;22;20016;-40
2022/11/11 08:06:14;;;;;;;1.63;0.35;;;;;;;;;;6266535;22;20163;-41
2022/11/11 08:08:41;;;;;;;2.35;0.63;;;;;;;;;;6277556;22;20069;-41
2022/11/11 08:11:12;;;;;;;1.83;0.47;;;;;;;;;;6263391;22;20327;-42
2022/11/11 08:13:39;;;;;;;3.75;1.13;;;;;;;;;;6278190;22;20015;-40
2022/11/11 08:16:07;;;;;;;5.67;0.50;;;;;;;;;;6270807;22;20311;-41
2022/11/11 08:18:34;;;;;;;1.90;0.65;;;;;;;;;;6270782;22;20090;-41
2022/11/11 08:21:01;;;;;;;1.77;0.40;;;;;;;;;;6274858;22;20101;-40
2022/11/11 08:23:32;;;;;;;2.78;1.15;;;;;;;;;;6235695;22;20506;-41
2022/11/11 08:25:58;;;;;;;2.92;0.70;;;;;;;;;;6240410;22;20325;-40
2022/11/11 08:28:25;;;;;;;2.47;0.87;;;;;;;;;;6272462;22;20705;-43
2022/11/11 08:30:53;;;;;;;1.48;0.30;;;;;;;;;;6244705;22;20069;-42
2022/11/11 08:33:21;;;;;;;2.08;0.50;;;;;;;;;;6245015;22;20573;-42
2022/11/11 08:35:47;;;;;;;2.00;0.75;;;;;;;;;;6278883;22;20011;-40
2022/11/11 08:38:14;;;;;;;2.00;0.50;;;;;;;;;;6265660;22;20016;-40
2022/11/11 08:40:40;;;;;;;2.80;1.03;;;;;;;;;;6267072;22;20334;-40
2022/11/11 08:43:07;;;;;;;2.30;0.60;;;;;;;;;;6242474;22;20034;-43
2022/11/11 08:45:33;;;;;;;2.22;0.60;;;;;;;;;;6273980;22;20014;-40
2022/11/11 08:48:02;;;;;;;2.00;0.60;;;;;;;;;;6265960;22;20015;-41
2022/11/11 08:50:29;;;;;;;2.38;0.43;;;;;;;;;;6279889;22;20022;-41
2022/11/11 08:52:55;;;;;;;1.67;0.40;;;;;;;;;;6265471;22;20401;-40
2022/11/11 08:55:22;;;;;;;2.03;0.52;;;;;;;;;;6267550;22;20147;-40
2022/11/11 08:57:48;;;;;;;2.25;0.60;;;;;;;;;;6262438;22;20019;-41
2022/11/11 09:00:16;;;;;;;2.00;0.50;;;;;;;;;;6248244;22;20019;-40
2022/11/11 09:02:43;;;;;;;1.92;0.45;;;;;;;;;;6267322;22;20019;-40
2022/11/11 09:05:11;;;;;;;1.90;0.57;;;;;;;;;;6266412;22;20027;-43
2022/11/11 09:07:37;;;;;;;1.92;0.57;;;;;;;;;;6212444;22;20015;-41
2022/11/11 09:10:05;;;;;;;2.13;0.50;;;;;;;;;;6253813;22;20018;-42
2022/11/11 09:12:32;;;;;;;1.75;0.50;;;;;;;;;;6261062;22;20442;-43
2022/11/11 09:15:00;;;;;;;2.53;0.93;;;;;;;;;;6261506;22;20019;-40
2022/11/11 09:17:26;;;;;;;2.10;0.50;;;;;;;;;;6258289;22;20023;-41
2022/11/11 09:19:53;;;;;;;1.40;0.30;;;;;;;;;;6261351;22;20027;-40
2022/11/11 09:22:21;;;;;;;2.50;0.70;;;;;;;;;;6258068;22;20369;-41
2022/11/11 09:24:48;;;;;;;1.60;0.30;;;;;;;;;;6262243;22;20471;-40
2022/11/11 09:27:14;;;;;;;1.95;0.45;;;;;;;;;;6250687;22;20011;-40
2022/11/11 09:29:42;;;;;;;2.70;0.90;;;;;;;;;;6254606;22;20133;-43
2022/11/11 09:32:09;;;;;;;2.08;0.60;;;;;;;;;;6261650;22;20069;-40
2022/11/11 09:34:36;;;;;;;2.30;0.63;;;;;;;;;;6261344;22;20015;-40
2022/11/11 09:37:02;;;;;;;1.85;0.52;;;;;;;;;;6248337;22;20509;-40
2022/11/11 09:39:30;;;;;;;2.72;0.88;;;;;;;;;;6260471;22;20060;-41
2022/11/11 09:42:03;;;;;;;1.93;0.57;;;;;;;;;;6250272;22;20592;-40
2022/11/11 09:44:34;;;;;;;1.85;0.40;;;;;;;;;;6264117;22;20069;-40
2022/11/11 09:47:04;;;;;;;2.35;0.60;;;;;;;;;;6240593;22;20026;-40
2022/11/11 09:49:38;;;;;;;1.92;0.50;;;;;;;;;;6255802;22;20548;-40
2022/11/11 09:52:09;;;;;;;2.15;0.60;;;;;;;;;;6257234;22;20011;-41
2022/11/11 09:54:38;;;;;;;2.13;0.53;;;;;;;;;;6259965;22;20382;-40
2022/11/11 09:57:14;;;;;;;3.25;0.60;;;;;;;;;;6222854;22;20300;-40
2022/11/11 09:59:44;;;;;;;1.92;0.45;;;;;;;;;;6252927;22;20015;-40
2022/11/11 10:02:15;;;;;;;1.88;0.60;;;;;;;;;;6252461;22;20413;-42
2022/11/11 10:04:49;;;;;;;4.32;1.30;;;;;;;;;;6259107;22;20011;-40
2022/11/11 10:07:21;;;;;;;2.20;0.60;;;;;;;;;;6247618;22;20465;-40
2022/11/11 10:09:54;;;;;;;2.05;0.65;;;;;;;;;;6258892;22;20061;-41
2022/11/11 10:12:23;;;;;;;3.20;0.82;;;;;;;;;;6258668;22;20487;-41
2022/11/11 10:14:50;;;;;;;1.85;0.50;;;;;;;;;;6262787;22;20023;-41
2022/11/11 10:17:25;;;;;;;2.15;0.63;;;;;;;;;;6252872;22;20011;-40
2022/11/11 10:19:57;;;;;;;1.50;0.30;;;;;;;;;;6256722;22;20106;-40
2022/11/11 10:25:22;;;;;;;1.70;0.40;;;;;;;;;;6198135;22;20409;-47
2022/11/11 10:27:51;;;;;;;1.60;0.30;;;;;;;;;;6271788;22;20015;-45
2022/11/11 10:30:19;;;;;;;2.20;0.80;;;;;;;;;;6282509;22;20046;-44
2022/11/11 10:32:53;;;;;;;3.30;0.90;;;;;;;;;;6289510;22;20014;-44
2022/11/11 10:35:21;;;;;;;2.17;0.63;;;;;;;;;;6282734;22;20042;-45
2022/11/11 10:37:56;;;;;;;2.42;0.80;;;;;;;;;;6283278;22;20032;-47
2022/11/11 10:40:28;;;;;;;3.58;1.27;;;;;;;;;;6285854;22;20022;-47
2022/11/11 10:42:55;;;;;;;2.95;1.15;;;;;;;;;;6273561;22;20060;-45
2022/11/11 10:45:24;;;;;;;2.00;0.60;;;;;;;;;;6286063;22;20010;-46
2022/11/11 10:47:54;;;;;;;2.10;0.52;;;;;;;;;;6286833;22;20015;-47
2022/11/11 10:50:22;;;;;;;4.85;0.80;;;;;;;;;;6281577;22;20678;-47
2022/11/11 10:52:56;;;;;;;1.92;0.50;;;;;;;;;;6293484;22;20255;-46
2022/11/11 10:55:27;;;;;;;1.85;0.50;;;;;;;;;;6295970;22;20478;-44
2022/11/11 10:57:57;;;;;;;2.90;0.73;;;;;;;;;;6276963;22;20019;-45
2022/11/11 11:00:23;;;;;;;2.63;0.68;;;;;;;;;;6264991;22;20076;-47
2022/11/11 11:02:53;;;;;;;2.10;0.57;;;;;;;;;;6283413;22;20497;-45
2022/11/11 11:05:22;;;;;;;2.05;0.50;;;;;;;;;;6290839;22;20108;-44
2022/11/11 11:07:50;;;;;;;2.78;0.70;;;;;;;;;;6280067;22;20015;-46
2022/11/11 11:10:19;;;;;;;1.90;0.50;;;;;;;;;;6291102;22;20019;-46
2022/11/11 11:12:50;;;;;;;1.95;0.68;;;;;;;;;;6279482;22;20380;-45
2022/11/11 11:15:18;;;;;;;2.88;0.90;;;;;;;;;;6285598;22;20140;-44
2022/11/11 11:17:49;;;;;;;2.78;0.90;;;;;;;;;;6280394;22;20026;-43
2022/11/11 11:20:17;;;;;;;2.28;0.63;;;;;;;;;;6309497;22;20015;-46
2022/11/11 11:22:48;;;;;;;3.40;1.00;;;;;;;;;;6287653;22;20019;-45
2022/11/11 11:25:15;;;;;;;2.47;0.77;;;;;;;;;;6308031;22;20114;-45
2022/11/11 11:27:41;;;;;;;2.35;0.75;;;;;;;;;;6296518;22;20512;-45
2022/11/11 11:30:14;;;;;;;2.38;0.70;;;;;;;;;;6305251;22;20087;-44
2022/11/11 11:32:43;;;;;;;2.65;0.80;;;;;;;;;;6291888;22;20022;-44
2022/11/11 11:35:09;;;;;;;2.80;1.03;;;;;;;;;;6306052;22;20468;-46
2022/11/11 11:37:48;;;;;;;2.13;0.63;;;;;;;;;;6301477;22;20019;-47
2022/11/11 11:40:15;;;;;;;5.13;0.65;;;;;;;;;;6310748;22;20039;-46
2022/11/11 11:42:42;;;;;;;2.10;0.70;;;;;;;;;;6296421;22;20050;-46
2022/11/11 11:45:20;;;;;;;3.50;1.27;;;;;;;;;;6306652;22;20015;-45
2022/11/11 11:47:51;;;;;;;2.60;0.80;;;;;;;;;;6301883;22;20444;-45
2022/11/11 11:50:25;;;;;;;3.58;0.40;;;;;;;;;;6308387;22;20015;-46
2022/11/11 11:52:56;;;;;;;2.22;0.60;;;;;;;;;;6307522;22;20089;-45
2022/11/11 11:55:25;;;;;;;3.50;1.20;;;;;;;;;;6300161;22;20047;-46
2022/11/11 11:57:57;;;;;;;2.20;0.70;;;;;;;;;;6303319;22;20018;-45
2022/11/11 12:00:25;;;;;;;1.83;0.50;;;;;;;;;;6300260;22;20019;-45
2022/11/11 12:03:03;;;;;;;2.88;1.17;;;;;;;;;;6314569;22;20026;-44
2022/11/11 12:05:34;;;;;;;2.35;0.80;;;;;;;;;;6280640;22;20023;-44
2022/11/11 12:08:10;;;;;;;2.15;0.63;;;;;;;;;;6279617;22;20476;-44
2022/11/11 12:10:41;;;;;;;2.40;0.80;;;;;;;;;;6288478;22;20403;-44
2022/11/11 12:13:12;;;;;;;2.17;0.50;;;;;;;;;;6310030;22;20142;-44
2022/11/11 12:15:41;;;;;;;2.15;0.60;;;;;;;;;;6299732;22;20015;-44
2022/11/11 12:18:18;;;;;;;3.05;0.82;;;;;;;;;;6300602;22;20021;-44
2022/11/11 12:20:48;;;;;;;2.50;0.77;;;;;;;;;;6299677;22;20010;-44
2022/11/11 12:23:23;;;;;;;2.10;0.60;;;;;;;;;;6307388;22;20018;-44
2022/11/11 12:25:57;;;;;;;2.40;0.80;;;;;;;;;;6310093;22;20011;-44
2022/11/11 12:28:31;;;;;;;2.10;0.60;;;;;;;;;;6300030;22;20021;-45
2022/11/11 12:31:03;;;;;;;2.17;0.70;;;;;;;;;;6306078;22;20011;-44
2022/11/11 12:33:47;;;;;;;3.25;0.95;;;;;;;;;;6294959;22;20015;-44
2022/11/11 12:36:16;;;;;;;2.58;1.10;;;;;;;;;;6276020;22;20026;-45
2022/11/11 12:39:00;;;;;;;2.43;0.60;;;;;;;;;;6312170;22;20015;-44
2022/11/11 12:41:29;;;;;;;2.97;0.82;;;;;;;;;;6280344;22;20023;-44
2022/11/11 12:44:01;;;;;;;2.10;0.60;;;;;;;;;;6308357;22;20026;-44
2022/11/11 12:46:34;;;;;;;6.03;1.10;;;;;;;;;;6297830;22;20011;-44
2022/11/11 12:49:05;;;;;;;1.85;0.43;;;;;;;;;;6303711;22;20018;-43
2022/11/11 12:51:46;;;;;;;2.87;0.80;;;;;;;;;;6308224;22;20019;-44
2022/11/11 12:54:16;;;;;;;5.55;1.02;;;;;;;;;;6297054;22;20258;-44
2022/11/11 12:56:48;;;;;;;6.45;0.95;;;;;;;;;;6312773;22;20021;-44
2022/11/11 12:59:19;;;;;;;2.15;0.65;;;;;;;;;;6302970;22;20495;-44
2022/11/11 13:01:53;;;;;;;3.22;1.50;;;;;;;;;;6309525;22;20019;-45
2022/11/11 13:04:28;;;;;;;1.93;0.53;;;;;;;;;;6307501;22;20014;-44
2022/11/11 13:07:12;;;;;;;2.05;0.50;;;;;;;;;;6303949;22;20079;-43
2022/11/11 13:09:48;;;;;;;2.20;0.63;;;;;;;;;;6248592;22;20622;-44
2022/11/11 13:12:17;;;;;;;3.03;0.70;;;;;;;;;;6295151;22;20015;-45
2022/11/11 13:14:54;;;;;;;2.92;1.27;;;;;;;;;;6313126;22;20022;-44
2022/11/11 13:17:22;;;;;;;2.33;0.80;;;;;;;;;;6295544;22;20018;-44
2022/11/11 13:19:51;;;;;;;3.40;1.00;;;;;;;;;;6288457;22;20738;-46
2022/11/11 13:22:22;;;;;;;1.90;0.47;;;;;;;;;;6307705;22;20022;-44
2022/11/11 13:24:48;;;;;;;1.83;0.52;;;;;;;;;;6289044;22;20420;-44
2022/11/11 13:27:17;;;;;;;2.85;0.95;;;;;;;;;;6297665;22;20015;-44
2022/11/11 13:29:55;;;;;;;3.00;1.10;;;;;;;;;;6286153;22;20027;-43
2022/11/11 13:32:25;;;;;;;2.03;0.60;;;;;;;;;;6305215;22;20015;-45
2022/11/11 13:34:53;;;;;;;2.30;0.60;;;;;;;;;;6288754;22;20018;-44
2022/11/11 13:37:21;;;;;;;1.92;0.57;;;;;;;;;;6308996;22;20015;-45
2022/11/11 13:39:49;;;;;;;3.67;0.75;;;;;;;;;;6289638;22;20050;-45
2022/11/11 13:42:21;;;;;;;2.20;0.70;;;;;;;;;;6302242;22;20025;-45
2022/11/11 13:44:50;;;;;;;1.75;0.40;;;;;;;;;;6296366;22;20372;-45
2022/11/11 13:47:18;;;;;;;2.50;0.90;;;;;;;;;;6302402;22;20017;-44
2022/11/11 13:49:51;;;;;;;1.90;0.60;;;;;;;;;;6291904;22;20014;-45
2022/11/11 13:52:22;;;;;;;2.33;0.70;;;;;;;;;;6297219;22;20380;-45
2022/11/11 13:54:49;;;;;;;2.20;0.50;;;;;;;;;;6288983;22;20018;-43
2022/11/11 13:57:19;;;;;;;1.75;0.45;;;;;;;;;;6300898;22;20011;-44
2022/11/11 13:59:53;;;;;;;1.95;0.60;;;;;;;;;;6299731;22;20018;-43
2022/11/11 14:02:27;;;;;;;3.15;0.68;;;;;;;;;;6267188;22;20072;-44
2022/11/11 14:31:38;;;;;;;2.03;0.60;;;;;;;;;;6142146;22;2042119;-44
2022/11/11 14:34:08;;;;;;;1.70;0.40;;;;;;;;;;6195921;23;20066;-45
2022/11/11 14:36:40;;;;;;;3.50;0.68;;;;;;;;;;6193920;23;20020;-44
2022/11/11 14:39:09;;;;;;;2.33;0.70;;;;;;;;;;6208977;23;20012;-44
2022/11/11 14:41:45;;;;;;;2.42;0.80;;;;;;;;;;6194426;23;20026;-44
2022/11/11 14:44:30;;;;;;;2.43;0.60;;;;;;;;;;6203051;23;20345;-45
2022/11/11 14:47:20;;;;;;;2.22;0.70;;;;;;;;;;6204964;23;20020;-44
2022/11/11 14:49:49;;;;;;;3.13;0.88;;;;;;;;;;6208038;23;20015;-44
2022/11/11 14:52:19;;;;;;;2.35;0.80;;;;;;;;;;6202057;23;20016;-44
2022/11/11 14:54:54;;;;;;;2.17;0.50;;;;;;;;;;6213312;23;20019;-44
2022/11/11 14:57:23;;;;;;;2.20;0.77;;;;;;;;;;6194708;23;20074;-44
2022/11/11 14:59:50;;;;;;;2.95;1.00;;;;;;;;;;6212299;23;20020;-44
2022/11/11 15:02:25;;;;;;;3.70;0.95;;;;;;;;;;6199028;23;20494;-44
2022/11/11 15:04:53;;;;;;;2.40;0.75;;;;;;;;;;6204559;23;20016;-45
2022/11/11 15:07:28;;;;;;;1.95;0.52;;;;;;;;;;6166891;23;20654;-47
2022/11/11 15:10:09;;;;;;;2.33;0.73;;;;;;;;;;6199928;23;20093;-46
2022/11/11 15:12:44;;;;;;;2.45;0.95;;;;;;;;;;6205704;23;20888;-43
2022/11/11 15:15:14;;;;;;;2.75;0.90;;;;;;;;;;6198787;23;20016;-44
2022/11/11 15:17:48;;;;;;;2.85;1.05;;;;;;;;;;6191377;23;20020;-45
2022/11/11 15:20:25;;;;;;;2.58;0.77;;;;;;;;;;6197796;23;20067;-43
2022/11/11 15:22:57;;;;;;;2.13;0.60;;;;;;;;;;6190922;23;20439;-47
2022/11/11 15:25:30;;;;;;;3.58;1.10;;;;;;;;;;6172156;23;20020;-45
2022/11/11 15:28:00;;;;;;;2.10;0.60;;;;;;;;;;6156343;23;20028;-45
2022/11/11 15:30:40;;;;;;;2.78;1.35;;;;;;;;;;6168074;23;20474;-43
2022/11/11 15:33:11;;;;;;;3.15;1.00;;;;;;;;;;6159113;23;20581;-44
2022/11/11 15:35:41;;;;;;;1.83;0.50;;;;;;;;;;6164462;23;20024;-46
2022/11/11 15:38:11;;;;;;;2.50;1.00;;;;;;;;;;6147714;23;20021;-52
2022/11/11 15:40:48;;;;;;;2.70;0.80;;;;;;;;;;6171797;23;20516;-46
2022/11/11 15:43:16;;;;;;;2.22;0.70;;;;;;;;;;6164422;23;20447;-46
2022/11/11 15:45:45;;;;;;;2.10;0.65;;;;;;;;;;6157847;23;20079;-45
2022/11/11 15:48:16;;;;;;;1.67;0.40;;;;;;;;;;6167748;23;20402;-45
2022/11/11 15:50:44;;;;;;;2.60;0.80;;;;;;;;;;6161496;23;20463;-46
2022/11/11 15:53:12;;;;;;;2.30;0.77;;;;;;;;;;6174237;23;20083;-47
2022/11/11 15:55:39;;;;;;;2.13;0.60;;;;;;;;;;6130721;23;20059;-46
2022/11/11 15:58:09;;;;;;;2.40;0.77;;;;;;;;;;6172290;23;20035;-47
2022/11/11 16:00:36;;;;;;;2.20;0.47;;;;;;;;;;6153576;23;20778;-44
2022/11/11 16:03:02;;;;;;;4.93;1.35;;;;;;;;;;6171006;23;20396;-46
2022/11/11 16:05:31;;;;;;;2.88;0.70;;;;;;;;;;6130749;23;20509;-45
2022/11/11 16:08:02;;;;;;;2.35;0.70;;;;;;;;;;6165591;23;20020;-45
2022/11/11 16:10:30;;;;;;;2.45;0.80;;;;;;;;;;6161736;23;20100;-43
2022/11/11 16:12:59;;;;;;;4.23;0.87;;;;;;;;;;6174084;23;20017;-44
2022/11/11 16:15:28;;;;;;;2.10;0.50;;;;;;;;;;6164372;23;20028;-47
2022/11/11 16:17:59;;;;;;;2.40;0.70;;;;;;;;;;6158833;23;20020;-43
2022/11/11 16:20:28;;;;;;;1.88;0.55;;;;;;;;;;6173104;23;20025;-44
2022/11/11 16:22:56;;;;;;;4.97;1.05;;;;;;;;;;6164579;23;20074;-49
2022/11/11 16:25:24;;;;;;;2.33;0.70;;;;;;;;;;6155577;23;20024;-44
2022/11/11 16:27:53;;;;;;;2.35;0.90;;;;;;;;;;6158226;23;20025;-47
2022/11/11 16:30:28;;;;;;;1.98;0.55;;;;;;;;;;6169695;23;20339;-44
2022/11/11 16:32:56;;;;;;;2.63;0.82;;;;;;;;;;6145405;23;20500;-44
2022/11/11 16:35:24;;;;;;;2.35;0.70;;;;;;;;;;6157002;23;20020;-47
2022/11/11 16:37:51;;;;;;;3.80;1.83;;;;;;;;;;6145063;23;20023;-45
2022/11/11 16:40:34;;;;;;;2.28;0.70;;;;;;;;;;6173886;23;20027;-44
2022/11/11 16:43:17;;;;;;;5.85;1.80;;;;;;;;;;6163353;23;20422;-45
2022/11/11 16:45:47;;;;;;;3.03;1.38;;;;;;;;;;6156240;23;20066;-45